Impacts METAR Board INFO
IDs:

KMDW - Chicago/Midway Intl, IL, US

Updated at: 0240 UTC 15 Dec 2017
Potential Impact None Slight Moderate High
Time14/14Z 14/15Z 14/16Z 14/17Z 14/18Z 14/19Z 14/20Z 14/21Z 14/22Z 14/23Z 15/00Z 15/01Z 15/02Z
VIS10 10 10 10 10 10 10 10 10 10 10 10 10
CIG250 250 250 250 250 250 250 200 200 200 -- -- --
CoverBKNBKNBKNBKNBKNBKNBKNBKNBKNBKNSCTCLRFEW
FltCatVFRVFRVFRVFRVFRVFRVFRVFRVFRVFRVFRVFRVFR
WX--------------------------
WDir330340330350290310270290290320310300270
WSpd10 10 7 5 5 6 8 4 4 7 6 4 4
WGst-- -- -- -- -- -- -- -- -- -- -- -- --
Raw hourly METARs
KMDW 141353Z 33010KT 10SM FEW048 BKN250 M08/M12 A3003 RMK AO2 SLP184 T10781117
KMDW 141453Z 34010KT 10SM FEW048 BKN250 M07/M11 A3006 RMK AO2 SLP195 T10671111 53026
KMDW 141553Z 33007KT 10SM FEW048 BKN250 M05/M11 A3009 RMK AO2 SLP204 T10501106
KMDW 141653Z 35005KT 10SM FEW048 BKN250 M04/M11 A3007 RMK AO2 SLP198 T10391106
KMDW 141753Z 29005KT 10SM FEW048 BKN250 M03/M10 A3006 RMK AO2 SLP193 T10331100 11028 21078 58001
KMDW 141853Z 31006KT 10SM FEW048 BKN250 M02/M10 A3004 RMK AO2 SLP187 T10221100
KMDW 141953Z 27008KT 10SM FEW040 BKN250 M02/M13 A3004 RMK AO2 SLP188 T10221128
KMDW 142053Z 29004KT 10SM FEW040 BKN200 M02/M12 A3005 RMK AO2 SLP189 T10221117 55004
KMDW 142153Z 29004KT 10SM FEW040 BKN200 M03/M12 A3006 RMK AO2 SLP193 T10281122
KMDW 142253Z 32007KT 10SM FEW040 BKN200 M04/M12 A3006 RMK AO2 SLP196 T10391122
KMDW 142353Z 31006KT 10SM FEW040 SCT200 M05/M13 A3008 RMK AO2 SLP201 T10501128 11011 21050 53010
KMDW 150053Z 30004KT 10SM CLR M05/M12 A3008 RMK AO2 SLP204 T10501122
KMDW 150153Z 27004KT 10SM FEW100 FEW250 M06/M12 A3008 RMK AO2 SLP203 T10561117